sensor_id;sensor_type;location;lat;lon;timestamp;P1;durP1;ratioP1;P2;durP2;ratioP2
14088;SDS011;7120;52.890;6.040;2024-03-23T00:55:12;32.10;;;9.73;;
14088;SDS011;7120;52.890;6.040;2024-03-23T00:57:38;34.20;;;9.47;;
14088;SDS011;7120;52.890;6.040;2024-03-23T01:00:04;31.70;;;9.50;;
14088;SDS011;7120;52.890;6.040;2024-03-23T01:02:31;37.80;;;10.73;;
14088;SDS011;7120;52.890;6.040;2024-03-23T01:04:57;35.30;;;9.93;;
14088;SDS011;7120;52.890;6.040;2024-03-23T01:07:22;26.93;;;9.60;;
14088;SDS011;7120;52.890;6.040;2024-03-23T01:09:47;32.83;;;10.37;;
14088;SDS011;7120;52.890;6.040;2024-03-23T01:12:13;36.43;;;10.87;;
14088;SDS011;7120;52.890;6.040;2024-03-23T01:14:38;36.97;;;11.63;;
14088;SDS011;7120;52.890;6.040;2024-03-23T01:17:03;29.10;;;10.23;;
14088;SDS011;7120;52.890;6.040;2024-03-23T01:19:29;32.83;;;12.37;;
14088;SDS011;7120;52.890;6.040;2024-03-23T01:21:54;40.83;;;11.70;;
14088;SDS011;7120;52.890;6.040;2024-03-23T01:24:20;34.90;;;12.30;;
14088;SDS011;7120;52.890;6.040;2024-03-23T01:26:46;24.67;;;11.43;;
14088;SDS011;7120;52.890;6.040;2024-03-23T01:29:11;33.53;;;10.80;;
14088;SDS011;7120;52.890;6.040;2024-03-23T01:31:37;34.30;;;11.07;;
14088;SDS011;7120;52.890;6.040;2024-03-23T01:34:02;41.50;;;12.00;;
14088;SDS011;7120;52.890;6.040;2024-03-23T01:36:28;43.37;;;11.10;;
14088;SDS011;7120;52.890;6.040;2024-03-23T01:38:53;31.57;;;11.30;;
14088;SDS011;7120;52.890;6.040;2024-03-23T01:41:18;29.23;;;11.00;;
14088;SDS011;7120;52.890;6.040;2024-03-23T01:43:44;25.43;;;11.17;;
14088;SDS011;7120;52.890;6.040;2024-03-23T01:46:09;37.57;;;11.10;;
14088;SDS011;7120;52.890;6.040;2024-03-23T01:48:35;31.47;;;11.70;;
14088;SDS011;7120;52.890;6.040;2024-03-23T01:51:01;41.67;;;11.57;;
14088;SDS011;7120;52.890;6.040;2024-03-23T01:53:28;31.20;;;10.50;;
14088;SDS011;7120;52.890;6.040;2024-03-23T01:55:53;42.13;;;10.37;;
14088;SDS011;7120;52.890;6.040;2024-03-23T01:58:19;25.50;;;9.23;;
14088;SDS011;7120;52.890;6.040;2024-03-23T02:00:45;29.17;;;10.27;;
14088;SDS011;7120;52.890;6.040;2024-03-23T02:05:49;30.27;;;10.57;;
14088;SDS011;7120;52.890;6.040;2024-03-23T02:08:14;29.60;;;10.50;;
14088;SDS011;7120;52.890;6.040;2024-03-23T02:10:40;32.90;;;11.37;;
14088;SDS011;7120;52.890;6.040;2024-03-23T02:13:05;31.67;;;11.73;;
14088;SDS011;7120;52.890;6.040;2024-03-23T02:15:30;32.43;;;11.83;;
14088;SDS011;7120;52.890;6.040;2024-03-23T02:17:56;32.77;;;12.33;;
14088;SDS011;7120;52.890;6.040;2024-03-23T02:20:21;30.37;;;11.73;;
14088;SDS011;7120;52.890;6.040;2024-03-23T02:22:51;31.97;;;11.83;;
14088;SDS011;7120;52.890;6.040;2024-03-23T02:25:18;33.70;;;11.90;;
14088;SDS011;7120;52.890;6.040;2024-03-23T02:27:43;35.73;;;12.23;;
14088;SDS011;7120;52.890;6.040;2024-03-23T02:30:09;26.07;;;11.37;;
14088;SDS011;7120;52.890;6.040;2024-03-23T02:32:34;29.80;;;12.40;;
14088;SDS011;7120;52.890;6.040;2024-03-23T02:35:00;35.43;;;13.70;;
14088;SDS011;7120;52.890;6.040;2024-03-23T02:37:25;25.20;;;12.87;;
14088;SDS011;7120;52.890;6.040;2024-03-23T02:39:51;33.47;;;13.27;;
14088;SDS011;7120;52.890;6.040;2024-03-23T02:42:16;35.90;;;13.77;;
14088;SDS011;7120;52.890;6.040;2024-03-23T02:44:42;30.47;;;13.70;;
14088;SDS011;7120;52.890;6.040;2024-03-23T02:47:09;32.73;;;13.43;;
14088;SDS011;7120;52.890;6.040;2024-03-23T02:49:35;31.40;;;13.60;;
14088;SDS011;7120;52.890;6.040;2024-03-23T02:52:00;39.37;;;13.67;;
14088;SDS011;7120;52.890;6.040;2024-03-23T02:54:26;33.63;;;12.57;;
14088;SDS011;7120;52.890;6.040;2024-03-23T02:56:51;30.80;;;11.67;;
14088;SDS011;7120;52.890;6.040;2024-03-23T02:59:16;35.77;;;14.67;;
14088;SDS011;7120;52.890;6.040;2024-03-23T03:01:42;29.77;;;13.00;;
14088;SDS011;7120;52.890;6.040;2024-03-23T03:04:07;35.53;;;15.90;;
14088;SDS011;7120;52.890;6.040;2024-03-23T03:06:33;37.90;;;14.30;;
14088;SDS011;7120;52.890;6.040;2024-03-23T03:08:58;38.27;;;12.90;;
14088;SDS011;7120;52.890;6.040;2024-03-23T03:11:24;38.47;;;12.47;;
14088;SDS011;7120;52.890;6.040;2024-03-23T03:13:49;30.27;;;11.57;;
14088;SDS011;7120;52.890;6.040;2024-03-23T03:16:15;30.43;;;12.40;;
14088;SDS011;7120;52.890;6.040;2024-03-23T03:18:40;35.87;;;12.30;;
14088;SDS011;7120;52.890;6.040;2024-03-23T03:21:06;29.37;;;11.13;;
14088;SDS011;7120;52.890;6.040;2024-03-23T03:23:35;29.20;;;11.33;;
14088;SDS011;7120;52.890;6.040;2024-03-23T03:26:02;23.93;;;11.37;;
14088;SDS011;7120;52.890;6.040;2024-03-23T03:28:27;31.97;;;11.30;;
14088;SDS011;7120;52.890;6.040;2024-03-23T03:30:55;25.03;;;10.87;;
14088;SDS011;7120;52.890;6.040;2024-03-23T03:33:21;24.63;;;10.23;;
14088;SDS011;7120;52.890;6.040;2024-03-23T03:35:46;23.77;;;10.67;;
14088;SDS011;7120;52.890;6.040;2024-03-23T03:38:12;22.17;;;11.30;;
14088;SDS011;7120;52.890;6.040;2024-03-23T03:40:37;26.40;;;11.47;;
14088;SDS011;7120;52.890;6.040;2024-03-23T03:43:02;27.47;;;10.97;;
14088;SDS011;7120;52.890;6.040;2024-03-23T03:45:28;30.30;;;10.87;;
14088;SDS011;7120;52.890;6.040;2024-03-23T03:47:53;26.70;;;9.60;;
14088;SDS011;7120;52.890;6.040;2024-03-23T03:50:19;27.80;;;8.83;;
14088;SDS011;7120;52.890;6.040;2024-03-23T03:52:45;16.83;;;7.67;;
14088;SDS011;7120;52.890;6.040;2024-03-23T03:55:12;28.90;;;7.80;;
14088;SDS011;7120;52.890;6.040;2024-03-23T03:57:38;20.40;;;8.53;;
14088;SDS011;7120;52.890;6.040;2024-03-23T04:00:03;21.00;;;7.53;;
14088;SDS011;7120;52.890;6.040;2024-03-23T04:02:29;21.40;;;7.37;;
14088;SDS011;7120;52.890;6.040;2024-03-23T04:04:55;22.70;;;7.60;;
14088;SDS011;7120;52.890;6.040;2024-03-23T04:07:20;23.13;;;7.70;;
14088;SDS011;7120;52.890;6.040;2024-03-23T04:09:47;23.73;;;7.50;;
14088;SDS011;7120;52.890;6.040;2024-03-23T04:12:13;26.63;;;7.53;;
14088;SDS011;7120;52.890;6.040;2024-03-23T04:14:38;19.27;;;7.53;;
14088;SDS011;7120;52.890;6.040;2024-03-23T04:17:04;22.27;;;7.33;;
14088;SDS011;7120;52.890;6.040;2024-03-23T04:19:29;21.27;;;7.30;;
14088;SDS011;7120;52.890;6.040;2024-03-23T04:21:54;23.17;;;7.90;;
14088;SDS011;7120;52.890;6.040;2024-03-23T04:24:20;25.07;;;7.53;;
14088;SDS011;7120;52.890;6.040;2024-03-23T04:26:47;22.50;;;7.47;;
14088;SDS011;7120;52.890;6.040;2024-03-23T04:29:13;23.00;;;7.33;;
14088;SDS011;7120;52.890;6.040;2024-03-23T04:31:38;23.63;;;7.93;;
14088;SDS011;7120;52.890;6.040;2024-03-23T04:34:04;21.30;;;7.80;;
14088;SDS011;7120;52.890;6.040;2024-03-23T04:36:29;25.23;;;7.57;;
14088;SDS011;7120;52.890;6.040;2024-03-23T04:38:56;21.17;;;8.30;;
14088;SDS011;7120;52.890;6.040;2024-03-23T04:41:21;19.60;;;6.80;;
14088;SDS011;7120;52.890;6.040;2024-03-23T04:43:47;20.30;;;6.57;;
14088;SDS011;7120;52.890;6.040;2024-03-23T04:46:12;21.90;;;6.90;;
14088;SDS011;7120;52.890;6.040;2024-03-23T04:48:37;21.73;;;7.47;;
14088;SDS011;7120;52.890;6.040;2024-03-23T04:51:03;19.57;;;7.70;;
14088;SDS011;7120;52.890;6.040;2024-03-23T04:53:29;19.43;;;6.70;;
14088;SDS011;7120;52.890;6.040;2024-03-23T04:55:55;18.13;;;6.97;;
14088;SDS011;7120;52.890;6.040;2024-03-23T04:58:21;20.17;;;7.13;;
14088;SDS011;7120;52.890;6.040;2024-03-23T05:00:53;18.70;;;7.43;;
14088;SDS011;7120;52.890;6.040;2024-03-23T05:03:22;18.37;;;8.50;;
14088;SDS011;7120;52.890;6.040;2024-03-23T05:05:48;21.73;;;7.50;;
14088;SDS011;7120;52.890;6.040;2024-03-23T05:08:14;15.97;;;6.50;;
14088;SDS011;7120;52.890;6.040;2024-03-23T05:10:41;20.50;;;6.87;;
14088;SDS011;7120;52.890;6.040;2024-03-23T05:13:07;21.77;;;5.83;;
14088;SDS011;7120;52.890;6.040;2024-03-23T05:15:32;19.37;;;6.50;;
14088;SDS011;7120;52.890;6.040;2024-03-23T05:17:57;17.77;;;6.07;;
14088;SDS011;7120;52.890;6.040;2024-03-23T05:20:23;25.20;;;7.47;;
14088;SDS011;7120;52.890;6.040;2024-03-23T05:22:49;14.30;;;6.27;;
14088;SDS011;7120;52.890;6.040;2024-03-23T05:25:14;16.83;;;6.63;;
14088;SDS011;7120;52.890;6.040;2024-03-23T05:27:41;18.17;;;6.40;;
14088;SDS011;7120;52.890;6.040;2024-03-23T05:30:06;21.07;;;7.70;;
14088;SDS011;7120;52.890;6.040;2024-03-23T05:32:32;18.93;;;7.63;;
14088;SDS011;7120;52.890;6.040;2024-03-23T05:34:57;16.63;;;7.80;;
14088;SDS011;7120;52.890;6.040;2024-03-23T05:37:23;23.03;;;8.80;;
14088;SDS011;7120;52.890;6.040;2024-03-23T05:39:48;22.40;;;9.90;;
14088;SDS011;7120;52.890;6.040;2024-03-23T05:42:17;14.40;;;8.93;;
14088;SDS011;7120;52.890;6.040;2024-03-23T05:44:43;16.30;;;8.33;;
14088;SDS011;7120;52.890;6.040;2024-03-23T05:47:10;9.93;;;6.53;;
14088;SDS011;7120;52.890;6.040;2024-03-23T05:49:35;10.90;;;5.87;;
14088;SDS011;7120;52.890;6.040;2024-03-23T05:52:02;10.53;;;4.47;;
14088;SDS011;7120;52.890;6.040;2024-03-23T05:54:29;6.17;;;3.47;;
14088;SDS011;7120;52.890;6.040;2024-03-23T05:56:55;7.10;;;3.37;;
14088;SDS011;7120;52.890;6.040;2024-03-23T05:59:20;3.50;;;2.70;;
14088;SDS011;7120;52.890;6.040;2024-03-23T06:01:46;5.93;;;3.10;;
14088;SDS011;7120;52.890;6.040;2024-03-23T06:04:12;7.80;;;3.30;;
14088;SDS011;7120;52.890;6.040;2024-03-23T06:06:38;10.70;;;3.63;;
14088;SDS011;7120;52.890;6.040;2024-03-23T06:09:04;8.70;;;3.43;;
14088;SDS011;7120;52.890;6.040;2024-03-23T06:11:30;11.93;;;4.53;;
14088;SDS011;7120;52.890;6.040;2024-03-23T06:13:55;10.23;;;4.40;;
14088;SDS011;7120;52.890;6.040;2024-03-23T06:16:21;13.47;;;4.47;;
14088;SDS011;7120;52.890;6.040;2024-03-23T06:18:49;8.93;;;4.47;;
14088;SDS011;7120;52.890;6.040;2024-03-23T06:21:15;12.30;;;4.47;;
14088;SDS011;7120;52.890;6.040;2024-03-23T06:23:41;13.70;;;4.90;;
14088;SDS011;7120;52.890;6.040;2024-03-23T06:26:07;15.00;;;4.70;;
14088;SDS011;7120;52.890;6.040;2024-03-23T06:28:33;9.37;;;4.70;;
14088;SDS011;7120;52.890;6.040;2024-03-23T06:30:58;16.60;;;4.77;;
14088;SDS011;7120;52.890;6.040;2024-03-23T06:33:23;14.87;;;6.00;;
14088;SDS011;7120;52.890;6.040;2024-03-23T06:35:52;11.73;;;5.47;;
14088;SDS011;7120;52.890;6.040;2024-03-23T06:38:18;13.10;;;5.87;;
14088;SDS011;7120;52.890;6.040;2024-03-23T06:40:43;13.70;;;5.30;;
14088;SDS011;7120;52.890;6.040;2024-03-23T06:43:13;17.97;;;6.03;;
14088;SDS011;7120;52.890;6.040;2024-03-23T06:45:38;15.67;;;6.83;;
14088;SDS011;7120;52.890;6.040;2024-03-23T06:48:04;18.40;;;6.47;;
14088;SDS011;7120;52.890;6.040;2024-03-23T06:50:33;20.40;;;5.93;;
14088;SDS011;7120;52.890;6.040;2024-03-23T06:52:58;13.63;;;5.00;;
14088;SDS011;7120;52.890;6.040;2024-03-23T06:55:24;14.80;;;4.17;;
14088;SDS011;7120;52.890;6.040;2024-03-23T06:57:51;13.90;;;3.97;;
14088;SDS011;7120;52.890;6.040;2024-03-23T07:00:17;6.73;;;3.57;;
14088;SDS011;7120;52.890;6.040;2024-03-23T07:02:43;6.00;;;3.00;;
14088;SDS011;7120;52.890;6.040;2024-03-23T07:05:09;8.10;;;3.47;;
14088;SDS011;7120;52.890;6.040;2024-03-23T07:07:35;7.40;;;3.30;;
14088;SDS011;7120;52.890;6.040;2024-03-23T07:10:01;9.73;;;3.47;;
14088;SDS011;7120;52.890;6.040;2024-03-23T07:12:27;7.60;;;3.40;;
14088;SDS011;7120;52.890;6.040;2024-03-23T07:14:52;5.60;;;2.13;;
14088;SDS011;7120;52.890;6.040;2024-03-23T07:17:17;6.73;;;2.43;;
14088;SDS011;7120;52.890;6.040;2024-03-23T07:19:43;5.53;;;2.20;;
14088;SDS011;7120;52.890;6.040;2024-03-23T07:22:08;10.93;;;3.43;;
14088;SDS011;7120;52.890;6.040;2024-03-23T07:24:34;8.57;;;3.43;;
14088;SDS011;7120;52.890;6.040;2024-03-23T07:27:00;10.30;;;3.30;;
14088;SDS011;7120;52.890;6.040;2024-03-23T07:29:27;11.27;;;3.90;;
14088;SDS011;7120;52.890;6.040;2024-03-23T07:31:52;10.07;;;4.20;;
14088;SDS011;7120;52.890;6.040;2024-03-23T07:34:18;13.30;;;5.07;;
14088;SDS011;7120;52.890;6.040;2024-03-23T07:36:43;11.00;;;5.53;;
14088;SDS011;7120;52.890;6.040;2024-03-23T07:39:08;10.20;;;5.93;;
14088;SDS011;7120;52.890;6.040;2024-03-23T07:41:34;9.80;;;5.50;;
14088;SDS011;7120;52.890;6.040;2024-03-23T07:44:00;11.40;;;5.07;;
14088;SDS011;7120;52.890;6.040;2024-03-23T07:46:26;14.43;;;6.00;;
14088;SDS011;7120;52.890;6.040;2024-03-23T07:48:51;16.07;;;5.17;;
14088;SDS011;7120;52.890;6.040;2024-03-23T07:51:18;16.50;;;6.60;;
14088;SDS011;7120;52.890;6.040;2024-03-23T07:53:46;15.60;;;7.30;;
14088;SDS011;7120;52.890;6.040;2024-03-23T07:56:11;14.97;;;6.23;;
14088;SDS011;7120;52.890;6.040;2024-03-23T07:58:37;14.30;;;5.70;;
14088;SDS011;7120;52.890;6.040;2024-03-23T08:01:07;17.30;;;6.10;;
14088;SDS011;7120;52.890;6.040;2024-03-23T08:03:34;11.60;;;6.30;;
14088;SDS011;7120;52.890;6.040;2024-03-23T08:06:10;17.63;;;7.77;;
14088;SDS011;7120;52.890;6.040;2024-03-23T08:08:40;11.47;;;6.37;;
14088;SDS011;7120;52.890;6.040;2024-03-23T08:11:07;16.87;;;7.43;;
14088;SDS011;7120;52.890;6.040;2024-03-23T08:13:33;12.30;;;6.17;;
14088;SDS011;7120;52.890;6.040;2024-03-23T08:15:59;17.80;;;5.93;;
14088;SDS011;7120;52.890;6.040;2024-03-23T08:18:26;17.97;;;5.97;;
14088;SDS011;7120;52.890;6.040;2024-03-23T08:21:01;12.80;;;4.10;;
14088;SDS011;7120;52.890;6.040;2024-03-23T08:23:28;12.10;;;4.17;;
14088;SDS011;7120;52.890;6.040;2024-03-23T08:25:57;12.57;;;3.67;;
14088;SDS011;7120;52.890;6.040;2024-03-23T08:28:24;19.53;;;4.00;;
14088;SDS011;7120;52.890;6.040;2024-03-23T08:30:50;15.03;;;3.37;;
14088;SDS011;7120;52.890;6.040;2024-03-23T08:33:15;9.70;;;3.17;;
14088;SDS011;7120;52.890;6.040;2024-03-23T08:35:41;10.40;;;3.10;;
14088;SDS011;7120;52.890;6.040;2024-03-23T08:38:06;12.70;;;3.07;;
14088;SDS011;7120;52.890;6.040;2024-03-23T08:40:32;12.50;;;2.87;;
14088;SDS011;7120;52.890;6.040;2024-03-23T08:42:57;12.13;;;3.90;;
14088;SDS011;7120;52.890;6.040;2024-03-23T08:45:24;14.70;;;3.87;;
14088;SDS011;7120;52.890;6.040;2024-03-23T08:47:50;12.33;;;4.23;;
14088;SDS011;7120;52.890;6.040;2024-03-23T08:50:15;11.20;;;3.43;;
14088;SDS011;7120;52.890;6.040;2024-03-23T08:52:41;10.03;;;2.70;;
14088;SDS011;7120;52.890;6.040;2024-03-23T08:55:06;8.77;;;3.17;;
14088;SDS011;7120;52.890;6.040;2024-03-23T08:57:32;10.87;;;2.83;;
14088;SDS011;7120;52.890;6.040;2024-03-23T08:59:57;9.87;;;2.70;;
14088;SDS011;7120;52.890;6.040;2024-03-23T09:02:23;13.93;;;3.13;;
14088;SDS011;7120;52.890;6.040;2024-03-23T09:04:48;5.13;;;2.10;;
14088;SDS011;7120;52.890;6.040;2024-03-23T09:07:13;10.07;;;2.70;;
14088;SDS011;7120;52.890;6.040;2024-03-23T09:09:39;12.80;;;2.50;;
14088;SDS011;7120;52.890;6.040;2024-03-23T09:12:05;11.77;;;2.53;;
14088;SDS011;7120;52.890;6.040;2024-03-23T09:14:31;9.60;;;3.40;;
14088;SDS011;7120;52.890;6.040;2024-03-23T09:16:57;15.40;;;3.83;;
14088;SDS011;7120;52.890;6.040;2024-03-23T09:19:23;13.40;;;3.20;;
14088;SDS011;7120;52.890;6.040;2024-03-23T09:21:48;8.80;;;2.23;;
14088;SDS011;7120;52.890;6.040;2024-03-23T09:24:14;5.70;;;1.87;;
14088;SDS011;7120;52.890;6.040;2024-03-23T09:26:39;9.47;;;2.30;;
14088;SDS011;7120;52.890;6.040;2024-03-23T09:29:05;8.27;;;2.47;;
14088;SDS011;7120;52.890;6.040;2024-03-23T09:31:30;12.63;;;2.80;;
14088;SDS011;7120;52.890;6.040;2024-03-23T09:33:57;10.10;;;4.23;;
14088;SDS011;7120;52.890;6.040;2024-03-23T09:36:23;16.70;;;4.43;;
14088;SDS011;7120;52.890;6.040;2024-03-23T09:38:48;9.93;;;3.23;;
14088;SDS011;7120;52.890;6.040;2024-03-23T09:41:14;9.80;;;2.20;;
14088;SDS011;7120;52.890;6.040;2024-03-23T09:43:40;6.80;;;2.03;;
14088;SDS011;7120;52.890;6.040;2024-03-23T09:46:05;5.67;;;2.00;;
14088;SDS011;7120;52.890;6.040;2024-03-23T09:48:31;6.90;;;2.90;;
14088;SDS011;7120;52.890;6.040;2024-03-23T09:50:56;7.80;;;3.13;;
14088;SDS011;7120;52.890;6.040;2024-03-23T09:53:22;11.97;;;4.83;;
14088;SDS011;7120;52.890;6.040;2024-03-23T09:55:48;11.40;;;6.27;;
14088;SDS011;7120;52.890;6.040;2024-03-23T09:58:17;10.37;;;4.70;;
14088;SDS011;7120;52.890;6.040;2024-03-23T10:00:43;8.57;;;4.87;;
14088;SDS011;7120;52.890;6.040;2024-03-23T10:03:09;7.83;;;2.77;;
14088;SDS011;7120;52.890;6.040;2024-03-23T10:05:36;5.10;;;1.90;;
14088;SDS011;7120;52.890;6.040;2024-03-23T10:10:42;4.40;;;2.10;;
14088;SDS011;7120;52.890;6.040;2024-03-23T10:13:08;6.50;;;2.20;;
14088;SDS011;7120;52.890;6.040;2024-03-23T10:15:34;8.43;;;2.40;;
14088;SDS011;7120;52.890;6.040;2024-03-23T10:18:19;5.40;;;1.80;;
14088;SDS011;7120;52.890;6.040;2024-03-23T10:23:37;10.40;;;9.27;;
14088;SDS011;7120;52.890;6.040;2024-03-23T10:31:27;5.37;;;2.53;;
14088;SDS011;7120;52.890;6.040;2024-03-23T10:33:53;8.63;;;2.30;;
14088;SDS011;7120;52.890;6.040;2024-03-23T10:36:20;5.23;;;2.30;;
14088;SDS011;7120;52.890;6.040;2024-03-23T10:38:46;5.63;;;1.90;;
14088;SDS011;7120;52.890;6.040;2024-03-23T10:41:12;11.40;;;5.10;;
14088;SDS011;7120;52.890;6.040;2024-03-23T10:43:38;6.70;;;2.83;;
14088;SDS011;7120;52.890;6.040;2024-03-23T10:46:04;13.10;;;6.70;;
14088;SDS011;7120;52.890;6.040;2024-03-23T10:48:31;5.37;;;1.80;;
14088;SDS011;7120;52.890;6.040;2024-03-23T10:50:57;8.03;;;2.40;;
14088;SDS011;7120;52.890;6.040;2024-03-23T10:53:25;7.17;;;2.30;;
14088;SDS011;7120;52.890;6.040;2024-03-23T10:55:51;7.87;;;3.37;;
14088;SDS011;7120;52.890;6.040;2024-03-23T10:58:18;3.73;;;1.60;;
14088;SDS011;7120;52.890;6.040;2024-03-23T11:00:48;2.70;;;1.03;;
14088;SDS011;7120;52.890;6.040;2024-03-23T11:03:29;2.93;;;1.00;;
14088;SDS011;7120;52.890;6.040;2024-03-23T11:06:02;13.87;;;9.63;;
14088;SDS011;7120;52.890;6.040;2024-03-23T11:08:36;4.07;;;1.30;;
14088;SDS011;7120;52.890;6.040;2024-03-23T11:11:18;41.57;;;37.47;;
14088;SDS011;7120;52.890;6.040;2024-03-23T11:13:44;7.00;;;2.70;;
14088;SDS011;7120;52.890;6.040;2024-03-23T11:16:15;6.07;;;2.70;;
14088;SDS011;7120;52.890;6.040;2024-03-23T11:18:42;7.10;;;2.40;;
14088;SDS011;7120;52.890;6.040;2024-03-23T11:21:08;7.53;;;2.27;;
14088;SDS011;7120;52.890;6.040;2024-03-23T11:23:34;8.57;;;1.90;;
14088;SDS011;7120;52.890;6.040;2024-03-23T11:25:59;7.77;;;2.47;;
14088;SDS011;7120;52.890;6.040;2024-03-23T11:28:25;6.53;;;1.97;;
14088;SDS011;7120;52.890;6.040;2024-03-23T11:30:51;3.73;;;1.30;;
14088;SDS011;7120;52.890;6.040;2024-03-23T11:33:16;2.23;;;0.80;;
14088;SDS011;7120;52.890;6.040;2024-03-23T11:35:42;0.87;;;0.63;;
14088;SDS011;7120;52.890;6.040;2024-03-23T11:38:14;1.10;;;0.67;;
14088;SDS011;7120;52.890;6.040;2024-03-23T11:40:43;2.23;;;0.80;;
14088;SDS011;7120;52.890;6.040;2024-03-23T11:43:11;1.73;;;0.80;;
14088;SDS011;7120;52.890;6.040;2024-03-23T11:45:37;1.80;;;1.00;;
14088;SDS011;7120;52.890;6.040;2024-03-23T11:48:05;3.07;;;1.20;;
14088;SDS011;7120;52.890;6.040;2024-03-23T11:50:32;3.43;;;1.33;;
14088;SDS011;7120;52.890;6.040;2024-03-23T11:53:08;5.70;;;1.50;;
14088;SDS011;7120;52.890;6.040;2024-03-23T11:55:46;6.17;;;1.70;;
14088;SDS011;7120;52.890;6.040;2024-03-23T11:58:19;7.60;;;2.40;;
14088;SDS011;7120;52.890;6.040;2024-03-23T12:00:55;6.97;;;3.20;;
14088;SDS011;7120;52.890;6.040;2024-03-23T12:03:22;7.20;;;2.63;;
14088;SDS011;7120;52.890;6.040;2024-03-23T12:06:00;7.80;;;2.50;;
14088;SDS011;7120;52.890;6.040;2024-03-23T12:08:33;11.37;;;2.97;;
14088;SDS011;7120;52.890;6.040;2024-03-23T12:11:09;9.57;;;2.77;;
14088;SDS011;7120;52.890;6.040;2024-03-23T12:13:36;9.13;;;4.60;;
14088;SDS011;7120;52.890;6.040;2024-03-23T12:16:16;10.57;;;2.73;;
14088;SDS011;7120;52.890;6.040;2024-03-23T12:18:43;13.60;;;3.50;;
14088;SDS011;7120;52.890;6.040;2024-03-23T12:21:10;9.83;;;2.73;;
14088;SDS011;7120;52.890;6.040;2024-03-23T12:23:35;12.33;;;2.80;;
14088;SDS011;7120;52.890;6.040;2024-03-23T12:26:03;4.37;;;2.20;;
14088;SDS011;7120;52.890;6.040;2024-03-23T12:28:29;8.60;;;3.00;;
14088;SDS011;7120;52.890;6.040;2024-03-23T12:30:54;8.87;;;2.93;;
14088;SDS011;7120;52.890;6.040;2024-03-23T12:33:22;8.03;;;2.40;;
14088;SDS011;7120;52.890;6.040;2024-03-23T12:35:48;7.80;;;2.50;;
14088;SDS011;7120;52.890;6.040;2024-03-23T12:38:14;7.50;;;2.60;;
14088;SDS011;7120;52.890;6.040;2024-03-23T12:40:40;10.47;;;2.97;;
14088;SDS011;7120;52.890;6.040;2024-03-23T12:43:06;6.13;;;2.50;;
14088;SDS011;7120;52.890;6.040;2024-03-23T12:45:32;8.53;;;2.57;;
14088;SDS011;7120;52.890;6.040;2024-03-23T12:47:57;6.20;;;2.23;;
14088;SDS011;7120;52.890;6.040;2024-03-23T12:50:23;8.40;;;2.70;;
14088;SDS011;7120;52.890;6.040;2024-03-23T12:52:48;7.70;;;2.50;;
14088;SDS011;7120;52.890;6.040;2024-03-23T12:55:14;10.20;;;2.20;;
14088;SDS011;7120;52.890;6.040;2024-03-23T12:57:39;7.77;;;2.67;;
14088;SDS011;7120;52.890;6.040;2024-03-23T13:00:06;8.37;;;2.73;;
14088;SDS011;7120;52.890;6.040;2024-03-23T13:02:31;10.70;;;4.13;;
14088;SDS011;7120;52.890;6.040;2024-03-23T13:04:57;12.17;;;7.17;;
14088;SDS011;7120;52.890;6.040;2024-03-23T13:07:23;22.13;;;16.30;;
14088;SDS011;7120;52.890;6.040;2024-03-23T13:09:51;6.93;;;2.53;;
14088;SDS011;7120;52.890;6.040;2024-03-23T13:12:17;6.70;;;2.83;;
14088;SDS011;7120;52.890;6.040;2024-03-23T13:14:44;7.77;;;2.33;;
14088;SDS011;7120;52.890;6.040;2024-03-23T13:17:09;7.43;;;3.17;;
14088;SDS011;7120;52.890;6.040;2024-03-23T13:19:35;9.73;;;2.50;;
14088;SDS011;7120;52.890;6.040;2024-03-23T13:22:00;14.50;;;3.33;;
14088;SDS011;7120;52.890;6.040;2024-03-23T13:24:30;9.60;;;2.37;;
14088;SDS011;7120;52.890;6.040;2024-03-23T13:26:56;8.23;;;2.70;;
14088;SDS011;7120;52.890;6.040;2024-03-23T13:29:22;14.53;;;3.00;;
14088;SDS011;7120;52.890;6.040;2024-03-23T13:31:48;7.33;;;2.63;;
14088;SDS011;7120;52.890;6.040;2024-03-23T13:34:14;14.80;;;2.50;;
14088;SDS011;7120;52.890;6.040;2024-03-23T13:36:41;8.87;;;2.57;;
14088;SDS011;7120;52.890;6.040;2024-03-23T13:39:06;9.50;;;2.73;;
14088;SDS011;7120;52.890;6.040;2024-03-23T13:41:37;7.47;;;2.63;;
14088;SDS011;7120;52.890;6.040;2024-03-23T13:44:11;12.10;;;2.87;;
14088;SDS011;7120;52.890;6.040;2024-03-23T13:46:39;8.33;;;2.70;;
14088;SDS011;7120;52.890;6.040;2024-03-23T13:49:05;8.53;;;2.37;;
14088;SDS011;7120;52.890;6.040;2024-03-23T13:51:31;10.20;;;3.00;;
14088;SDS011;7120;52.890;6.040;2024-03-23T13:53:57;5.23;;;2.03;;
14088;SDS011;7120;52.890;6.040;2024-03-23T13:56:26;6.90;;;2.43;;
14088;SDS011;7120;52.890;6.040;2024-03-23T13:58:57;8.93;;;2.50;;
14088;SDS011;7120;52.890;6.040;2024-03-23T14:01:23;8.37;;;2.27;;
14088;SDS011;7120;52.890;6.040;2024-03-23T14:03:49;9.03;;;3.03;;
14088;SDS011;7120;52.890;6.040;2024-03-23T14:06:14;9.87;;;3.00;;
14088;SDS011;7120;52.890;6.040;2024-03-23T14:08:40;24.63;;;13.33;;
14088;SDS011;7120;52.890;6.040;2024-03-23T14:11:06;9.10;;;2.60;;
14088;SDS011;7120;52.890;6.040;2024-03-23T14:13:32;6.27;;;2.13;;
14088;SDS011;7120;52.890;6.040;2024-03-23T14:15:58;8.67;;;2.97;;
14088;SDS011;7120;52.890;6.040;2024-03-23T14:18:24;8.93;;;3.10;;
14088;SDS011;7120;52.890;6.040;2024-03-23T14:20:51;8.57;;;2.97;;
14088;SDS011;7120;52.890;6.040;2024-03-23T14:23:16;9.10;;;2.80;;
14088;SDS011;7120;52.890;6.040;2024-03-23T14:25:42;12.30;;;3.57;;
14088;SDS011;7120;52.890;6.040;2024-03-23T14:28:07;10.60;;;4.20;;
14088;SDS011;7120;52.890;6.040;2024-03-23T14:30:39;12.73;;;3.33;;
14088;SDS011;7120;52.890;6.040;2024-03-23T14:33:07;10.70;;;3.23;;
14088;SDS011;7120;52.890;6.040;2024-03-23T14:35:33;7.87;;;5.20;;
14088;SDS011;7120;52.890;6.040;2024-03-23T14:37:59;8.10;;;2.73;;
14088;SDS011;7120;52.890;6.040;2024-03-23T14:40:24;8.43;;;2.50;;
14088;SDS011;7120;52.890;6.040;2024-03-23T14:42:52;13.03;;;2.90;;
14088;SDS011;7120;52.890;6.040;2024-03-23T14:45:18;8.80;;;2.63;;
14088;SDS011;7120;52.890;6.040;2024-03-23T14:47:44;6.47;;;2.53;;
14088;SDS011;7120;52.890;6.040;2024-03-23T14:50:10;9.10;;;2.30;;
14088;SDS011;7120;52.890;6.040;2024-03-23T14:52:39;7.27;;;2.00;;
14088;SDS011;7120;52.890;6.040;2024-03-23T14:55:04;11.70;;;2.50;;
14088;SDS011;7120;52.890;6.040;2024-03-23T14:57:30;6.40;;;2.23;;
14088;SDS011;7120;52.890;6.040;2024-03-23T14:59:55;4.50;;;1.43;;
14088;SDS011;7120;52.890;6.040;2024-03-23T15:02:21;3.80;;;1.40;;
14088;SDS011;7120;52.890;6.040;2024-03-23T15:04:46;2.30;;;1.40;;
14088;SDS011;7120;52.890;6.040;2024-03-23T15:07:11;5.60;;;1.53;;
14088;SDS011;7120;52.890;6.040;2024-03-23T15:09:37;4.37;;;1.60;;
14088;SDS011;7120;52.890;6.040;2024-03-23T15:12:02;3.33;;;1.20;;
14088;SDS011;7120;52.890;6.040;2024-03-23T15:14:27;4.90;;;1.50;;
14088;SDS011;7120;52.890;6.040;2024-03-23T15:16:53;4.17;;;1.57;;
14088;SDS011;7120;52.890;6.040;2024-03-23T15:19:19;4.83;;;1.70;;
14088;SDS011;7120;52.890;6.040;2024-03-23T15:21:44;5.07;;;1.70;;
14088;SDS011;7120;52.890;6.040;2024-03-23T15:24:09;7.27;;;1.63;;
14088;SDS011;7120;52.890;6.040;2024-03-23T15:26:36;6.33;;;2.00;;
14088;SDS011;7120;52.890;6.040;2024-03-23T15:29:05;6.07;;;2.20;;
14088;SDS011;7120;52.890;6.040;2024-03-23T15:31:42;7.20;;;2.33;;
14088;SDS011;7120;52.890;6.040;2024-03-23T15:34:07;5.40;;;1.37;;
14088;SDS011;7120;52.890;6.040;2024-03-23T15:36:36;6.40;;;1.87;;
14088;SDS011;7120;52.890;6.040;2024-03-23T15:39:04;11.77;;;2.60;;
14088;SDS011;7120;52.890;6.040;2024-03-23T15:41:30;7.40;;;2.17;;
14088;SDS011;7120;52.890;6.040;2024-03-23T15:43:56;8.90;;;2.53;;
14088;SDS011;7120;52.890;6.040;2024-03-23T15:46:21;5.23;;;1.70;;
14088;SDS011;7120;52.890;6.040;2024-03-23T15:48:47;8.33;;;1.50;;
14088;SDS011;7120;52.890;6.040;2024-03-23T15:51:13;5.67;;;1.90;;
14088;SDS011;7120;52.890;6.040;2024-03-23T15:53:39;4.20;;;2.33;;